Time;durP1;ratioP1;P1;durP2;ratioP2;P2;SDS_P1;SDS_P2;PMS_P1;PMS_P2;Temp;Humidity;BMP_temperature;BMP_pressure;BME280_temperature;BME280_humidity;BME280_pressure;Samples;Min_cycle;Max_cycle;Signal;HPM_P1;HPM_P2
2022/03/16 00:00:35;;;;;;;;;;;;;;;-0.04;70.70;101997.94;5017481;28;19933;-64
2022/03/16 00:03:21;;;;;;;;;;;;;;;-0.03;70.81;101998.03;5009523;28;20388;-63
2022/03/16 00:06:06;;;;;;;;;;;;;;;-0.06;69.85;101999.59;4978257;28;19980;-63
2022/03/16 00:08:51;;;;;;;;;;;;;;;-0.10;68.79;102008.97;5007953;28;19928;-63
2022/03/16 00:11:36;;;;;;;;;;;;;;;-0.16;69.60;102005.06;4992162;28;19932;-63
2022/03/16 00:14:21;;;;;;;;;;;;;;;-0.18;68.69;102009.31;5011201;28;19928;-69
2022/03/16 00:17:06;;;;;;;;;;;;;;;-0.21;70.20;102010.03;5009915;28;20011;-64
2022/03/16 00:19:50;;;;;;;;;;;;;;;-0.17;70.42;102011.09;5005238;28;19943;-64
2022/03/16 00:22:34;;;;;;;;;;;;;;;-0.12;71.50;102010.56;5009297;28;19967;-63
2022/03/16 00:25:19;;;;;;;;;;;;;;;-0.13;70.92;102013.97;5006137;28;19958;-64
2022/03/16 00:28:04;;;;;;;;;;;;;;;-0.15;72.20;102006.88;5009238;28;20016;-64
2022/03/16 00:30:48;;;;;;;;;;;;;;;-0.21;70.82;102004.81;4998053;28;19931;-62
2022/03/16 00:33:34;;;;;;;;;;;;;;;-0.23;71.89;102005.53;4982605;28;19927;-67
2022/03/16 00:36:21;;;;;;;;;;;;;;;-0.26;72.09;102002.75;5008336;28;20304;-63
2022/03/16 00:39:05;;;;;;;;;;;;;;;-0.30;72.30;102009.50;5008471;28;19947;-63
2022/03/16 00:41:49;;;;;;;;;;;;;;;-0.41;71.72;102007.06;4984746;28;19928;-62
2022/03/16 00:44:35;;;;;;;;;;;;;;;-0.43;71.94;102013.91;4995268;28;19976;-64
2022/03/16 00:47:19;;;;;;;;;;;;;;;-0.49;72.64;102016.13;5010386;28;20377;-63
2022/03/16 00:50:05;;;;;;;;;;;;;;;-0.42;73.99;102020.91;5011306;28;19928;-61
2022/03/16 00:52:49;;;;;;;;;;;;;;;-0.43;74.17;102021.72;4966688;28;19972;-68
2022/03/16 00:55:33;;;;;;;;;;;;;;;-0.41;73.88;102027.91;5011418;28;20363;-62
2022/03/16 00:58:19;;;;;;;;;;;;;;;-0.46;74.42;102030.25;4993634;28;20408;-63
2022/03/16 01:01:04;;;;;;;;;;;;;;;-0.43;74.59;102033.03;5011164;28;19947;-63
2022/03/16 01:03:49;;;;;;;;;;;;;;;-0.44;73.71;102030.31;4966449;28;19936;-63
2022/03/16 01:06:33;;;;;;;;;;;;;;;-0.50;74.87;102038.69;4995906;28;20364;-68
2022/03/16 01:09:18;;;;;;;;;;;;;;;-0.55;74.72;102042.72;5009963;28;20435;-63
2022/03/16 01:12:03;;;;;;;;;;;;;;;-0.53;75.32;102038.50;4995228;28;20011;-69
2022/03/16 01:14:48;;;;;;;;;;;;;;;-0.47;76.36;102037.97;5011522;28;20063;-63
2022/03/16 01:17:34;;;;;;;;;;;;;;;-0.46;76.75;102037.16;4992371;28;19928;-63
2022/03/16 01:20:18;;;;;;;;;;;;;;;-0.52;75.98;102031.56;5007977;28;19927;-62
2022/03/16 01:23:02;;;;;;;;;;;;;;;-0.52;77.11;102031.56;5008046;28;19927;-63
2022/03/16 01:25:47;;;;;;;;;;;;;;;-0.54;76.63;102028.91;4980490;28;19967;-63
2022/03/16 01:28:31;;;;;;;;;;;;;;;-0.51;76.30;102025.56;5014101;28;19936;-62
2022/03/16 01:31:18;;;;;;;;;;;;;;;-0.60;76.47;102028.50;5011417;28;19944;-63
2022/03/16 01:34:03;;;;;;;;;;;;;;;-0.59;77.27;102034.63;4984324;28;19928;-63
2022/03/16 01:36:47;;;;;;;;;;;;;;;-0.57;77.37;102035.63;5010806;28;19928;-63
2022/03/16 01:39:32;;;;;;;;;;;;;;;-0.59;76.96;102035.53;4985951;28;19975;-63
2022/03/16 01:42:16;;;;;;;;;;;;;;;-0.62;76.09;102037.06;4996345;28;19979;-64
2022/03/16 01:45:01;;;;;;;;;;;;;;;-0.78;76.51;102006.56;5012513;28;19975;-63
2022/03/16 01:47:47;;;;;;;;;;;;;;;-0.68;76.49;102036.66;5014872;28;20395;-64
2022/03/16 01:50:34;;;;;;;;;;;;;;;-0.73;76.25;102036.41;4996419;28;19961;-69
2022/03/16 01:53:20;;;;;;;;;;;;;;;-0.76;76.21;102040.50;5010762;28;20071;-63
2022/03/16 01:56:05;;;;;;;;;;;;;;;-0.73;77.60;102048.53;4981804;28;20387;-64
2022/03/16 01:58:50;;;;;;;;;;;;;;;-0.79;77.57;102046.44;4985247;28;19968;-63
2022/03/16 02:01:35;;;;;;;;;;;;;;;-0.80;77.87;102041.13;4982978;28;19975;-61
2022/03/16 02:04:19;;;;;;;;;;;;;;;-0.79;77.71;102045.56;4982808;28;20281;-64
2022/03/16 02:07:04;;;;;;;;;;;;;;;-0.85;77.80;102040.88;5012374;28;19928;-63
2022/03/16 02:09:49;;;;;;;;;;;;;;;-0.85;78.21;102038.28;5009888;28;19928;-70
2022/03/16 02:12:47;;;;;;;;;;;;;;;-0.91;78.67;102043.09;5009246;28;20431;-64
2022/03/16 02:15:31;;;;;;;;;;;;;;;-0.91;78.03;102037.00;5012149;28;19928;-65
2022/03/16 02:18:16;;;;;;;;;;;;;;;-0.91;77.88;102039.59;5011138;28;19982;-63
2022/03/16 02:21:02;;;;;;;;;;;;;;;-0.94;79.11;102037.69;4995716;28;19968;-62
2022/03/16 02:23:46;;;;;;;;;;;;;;;-1.01;79.11;102035.53;4981575;28;20027;-70
2022/03/16 02:26:31;;;;;;;;;;;;;;;-1.05;79.29;102036.16;5014273;28;19927;-64
2022/03/16 02:29:15;;;;;;;;;;;;;;;-1.00;78.59;102039.00;5012940;28;20300;-62
2022/03/16 02:32:00;;;;;;;;;;;;;;;-1.07;77.93;102042.06;4985165;28;19929;-63
2022/03/16 02:34:44;;;;;;;;;;;;;;;-1.13;77.14;102049.47;5012466;28;19968;-62
2022/03/16 02:37:28;;;;;;;;;;;;;;;-1.15;78.20;102038.97;5010946;28;20417;-64
2022/03/16 02:40:18;;;;;;;;;;;;;;;-1.25;79.13;102046.09;4999183;28;20353;-64
2022/03/16 02:43:03;;;;;;;;;;;;;;;-1.28;79.46;102049.41;4981053;28;19976;-68
2022/03/16 02:45:47;;;;;;;;;;;;;;;-1.23;80.23;102045.38;5013179;28;19928;-62
2022/03/16 02:48:31;;;;;;;;;;;;;;;-1.24;80.25;102053.09;4994677;28;19940;-63
2022/03/16 02:51:16;;;;;;;;;;;;;;;-1.25;80.47;102047.00;5013351;28;19928;-64
2022/03/16 02:54:00;;;;;;;;;;;;;;;-1.25;81.02;102047.00;4997483;28;20346;-63
2022/03/16 02:56:46;;;;;;;;;;;;;;;-1.26;80.60;102053.00;5012764;28;19928;-63
2022/03/16 02:59:32;;;;;;;;;;;;;;;-1.25;80.06;102041.81;4983675;28;19956;-63
2022/03/16 03:02:16;;;;;;;;;;;;;;;-1.30;79.54;102044.94;5011038;28;20325;-70
2022/03/16 03:05:00;;;;;;;;;;;;;;;-1.36;79.44;102048.03;5014129;28;20071;-62
2022/03/16 03:07:45;;;;;;;;;;;;;;;-1.38;79.48;102046.13;5009603;28;20066;-61
2022/03/16 03:10:30;;;;;;;;;;;;;;;-1.45;80.08;102047.47;4982785;28;20454;-63
2022/03/16 03:13:15;;;;;;;;;;;;;;;-1.40;80.51;102050.34;5010880;28;19971;-63
2022/03/16 03:15:59;;;;;;;;;;;;;;;-1.38;81.38;102048.75;5016508;28;20471;-62
2022/03/16 03:18:44;;;;;;;;;;;;;;;-1.41;80.28;102054.66;5009919;28;20348;-64
2022/03/16 03:21:28;;;;;;;;;;;;;;;-1.69;80.29;102043.28;5009069;28;19927;-70
2022/03/16 03:24:13;;;;;;;;;;;;;;;-1.62;81.67;102062.78;5011189;28;19948;-63
2022/03/16 03:26:57;;;;;;;;;;;;;;;-1.59;82.62;102061.28;5009272;28;20024;-64
2022/03/16 03:29:41;;;;;;;;;;;;;;;-1.52;82.64;102060.88;5012895;28;19943;-63
2022/03/16 03:32:26;;;;;;;;;;;;;;;-1.46;82.23;102070.78;5009448;28;19944;-62
2022/03/16 03:35:10;;;;;;;;;;;;;;;-1.49;81.95;102073.16;5012361;28;19929;-63
2022/03/16 03:37:55;;;;;;;;;;;;;;;-1.50;82.06;102076.56;5013287;28;20407;-63
2022/03/16 03:40:39;;;;;;;;;;;;;;;-1.62;82.81;102076.66;5010001;28;20030;-68
2022/03/16 03:43:24;;;;;;;;;;;;;;;-1.56;82.52;102078.78;4997550;28;20336;-62
2022/03/16 03:46:08;;;;;;;;;;;;;;;-1.55;82.29;102073.66;5010992;28;19956;-66
2022/03/16 03:48:53;;;;;;;;;;;;;;;-1.55;82.32;102086.66;5011729;28;19929;-61
2022/03/16 03:51:37;;;;;;;;;;;;;;;-1.58;81.83;102086.47;4992807;28;19944;-62
2022/03/16 03:54:22;;;;;;;;;;;;;;;-1.57;81.88;102088.28;5010150;28;20102;-62
2022/03/16 03:57:07;;;;;;;;;;;;;;;-1.55;82.17;102097.06;5012775;28;20327;-62
2022/03/16 03:59:51;;;;;;;;;;;;;;;-1.48;82.61;102103.56;5010877;28;19928;-64
2022/03/16 04:02:35;;;;;;;;;;;;;;;-1.42;81.95;102102.25;5011323;28;20296;-63
2022/03/16 04:05:20;;;;;;;;;;;;;;;-1.42;81.51;102101.38;4993493;28;19928;-72
2022/03/16 04:08:05;;;;;;;;;;;;;;;-1.44;81.49;102101.28;5009992;28;20269;-63
2022/03/16 04:10:49;;;;;;;;;;;;;;;-1.42;81.65;102093.56;5008160;28;19944;-62
2022/03/16 04:13:34;;;;;;;;;;;;;;;-1.41;82.14;102092.78;5008611;28;20040;-62
2022/03/16 04:16:18;;;;;;;;;;;;;;;-1.43;82.02;102097.88;5011680;28;20471;-64
2022/03/16 04:19:02;;;;;;;;;;;;;;;-1.34;82.29;102105.38;4991645;28;19972;-64
2022/03/16 04:21:47;;;;;;;;;;;;;;;-1.39;82.11;102101.56;4990840;28;19929;-63
2022/03/16 04:24:31;;;;;;;;;;;;;;;-1.34;82.25;102102.78;4991486;28;19932;-71
2022/03/16 04:27:16;;;;;;;;;;;;;;;-1.30;81.52;102109.97;4991886;28;19975;-62
2022/03/16 04:30:00;;;;;;;;;;;;;;;-1.26;80.73;102112.84;4973444;28;20388;-62
2022/03/16 04:32:51;;;;;;;;;;;;;;;-1.22;80.47;102109.66;4991385;28;20300;-65
2022/03/16 04:35:36;;;;;;;;;;;;;;;-1.23;80.52;102117.38;4975532;28;19959;-62
2022/03/16 04:38:20;;;;;;;;;;;;;;;-1.19;80.29;102111.56;4990210;28;19975;-63
2022/03/16 04:41:05;;;;;;;;;;;;;;;-1.13;80.66;102112.84;4991849;28;19929;-63
2022/03/16 04:43:49;;;;;;;;;;;;;;;-1.22;79.42;102116.56;4987644;28;19929;-70
2022/03/16 04:46:34;;;;;;;;;;;;;;;-1.18;80.23;102122.03;4991805;28;19960;-63
2022/03/16 04:49:18;;;;;;;;;;;;;;;-1.07;80.45;102120.16;4989090;28;19928;-64
2022/03/16 04:52:03;;;;;;;;;;;;;;;-1.01;80.42;102126.66;4964151;28;19928;-64
2022/03/16 04:54:47;;;;;;;;;;;;;;;-1.03;79.19;102120.44;5009749;28;20209;-63
2022/03/16 04:57:32;;;;;;;;;;;;;;;-1.03;78.72;102119.56;5010185;28;19956;-64
2022/03/16 05:00:16;;;;;;;;;;;;;;;-1.00;79.74;102127.53;5011346;28;20469;-64
2022/03/16 05:03:01;;;;;;;;;;;;;;;-0.93;79.21;102120.22;5008430;28;19976;-70
2022/03/16 05:05:47;;;;;;;;;;;;;;;-0.85;79.70;102131.09;5010225;28;19932;-64
2022/03/16 05:08:35;;;;;;;;;;;;;;;-0.76;78.93;102127.38;5013765;28;19966;-65
2022/03/16 05:11:22;;;;;;;;;;;;;;;-0.67;78.24;102127.94;4980992;28;20348;-63
2022/03/16 05:14:07;;;;;;;;;;;;;;;-0.76;77.62;102129.06;5014747;28;19951;-65
2022/03/16 05:16:53;;;;;;;;;;;;;;;-0.75;78.32;102142.19;5012623;28;19975;-64
2022/03/16 05:19:37;;;;;;;;;;;;;;;-0.74;77.36;102128.34;4981284;28;19983;-63
2022/03/16 05:22:22;;;;;;;;;;;;;;;-0.65;77.82;102126.34;5007940;28;19931;-66
2022/03/16 05:25:07;;;;;;;;;;;;;;;-0.59;77.48;102126.69;5012718;28;19928;-64
2022/03/16 05:27:51;;;;;;;;;;;;;;;-0.47;77.09;102134.41;5010577;28;20503;-64
2022/03/16 05:30:36;;;;;;;;;;;;;;;-0.51;78.16;102129.78;5013478;28;20090;-64
2022/03/16 05:33:22;;;;;;;;;;;;;;;-0.40;76.88;102128.72;5011605;28;19933;-63
2022/03/16 05:36:07;;;;;;;;;;;;;;;-0.25;76.97;102129.66;4970189;28;19928;-63
2022/03/16 05:38:51;;;;;;;;;;;;;;;-0.16;76.80;102135.41;5018032;28;20020;-67
2022/03/16 05:41:36;;;;;;;;;;;;;;;-0.10;75.47;102121.06;4996030;28;19927;-66
2022/03/16 05:44:20;;;;;;;;;;;;;;;-0.21;75.21;102134.25;5014294;28;20383;-61
2022/03/16 05:47:05;;;;;;;;;;;;;;;-0.10;74.92;102133.19;5010083;28;19944;-63
2022/03/16 05:49:53;;;;;;;;;;;;;;;-0.12;75.57;102134.78;5013252;28;19928;-63
2022/03/16 05:52:37;;;;;;;;;;;;;;;-0.01;75.72;102134.66;4969503;28;19928;-62
2022/03/16 05:55:22;;;;;;;;;;;;;;;0.16;74.88;102148.69;5012019;28;19944;-64
2022/03/16 05:58:07;;;;;;;;;;;;;;;0.35;74.18;102143.72;4999645;28;19987;-64
2022/03/16 06:00:51;;;;;;;;;;;;;;;0.52;73.25;102145.63;4995992;28;19935;-64
2022/03/16 06:03:36;;;;;;;;;;;;;;;0.66;71.83;102149.03;4983756;28;19929;-64
2022/03/16 06:06:21;;;;;;;;;;;;;;;0.77;71.17;102150.50;4996668;28;19945;-64
2022/03/16 06:09:06;;;;;;;;;;;;;;;0.86;70.70;102146.72;4997610;28;19939;-63
2022/03/16 06:11:51;;;;;;;;;;;;;;;0.89;70.82;102148.59;4984468;28;20007;-63
2022/03/16 06:14:35;;;;;;;;;;;;;;;0.91;70.59;102152.19;4998331;28;19928;-64
2022/03/16 06:17:20;;;;;;;;;;;;;;;0.83;69.79;102156.97;4983165;28;19976;-63
2022/03/16 06:20:06;;;;;;;;;;;;;;;0.92;70.44;102154.00;4996076;28;19987;-65
2022/03/16 06:22:55;;;;;;;;;;;;;;;1.00;69.51;102157.94;4999306;28;19928;-65
2022/03/16 06:25:41;;;;;;;;;;;;;;;0.99;68.34;102161.38;4983722;28;20551;-64
2022/03/16 06:28:26;;;;;;;;;;;;;;;1.06;68.65;102160.91;4982968;28;19948;-64
2022/03/16 06:31:11;;;;;;;;;;;;;;;1.06;68.35;102161.78;5010884;28;19928;-62
2022/03/16 06:33:56;;;;;;;;;;;;;;;1.13;68.57;102166.53;4983000;28;19967;-72
2022/03/16 06:36:42;;;;;;;;;;;;;;;1.14;67.73;102168.34;5011269;28;19928;-64
2022/03/16 06:39:26;;;;;;;;;;;;;;;1.18;67.71;102165.06;4967707;28;20420;-65
2022/03/16 06:42:10;;;;;;;;;;;;;;;1.19;66.79;102159.03;5012742;28;19987;-65
2022/03/16 06:44:55;;;;;;;;;;;;;;;1.26;66.47;102169.00;5017763;28;19928;-65
2022/03/16 06:47:40;;;;;;;;;;;;;;;1.26;66.30;102160.28;5012117;28;19969;-66
2022/03/16 06:50:26;;;;;;;;;;;;;;;1.39;67.03;102168.91;5013565;28;19927;-64
2022/03/16 06:53:11;;;;;;;;;;;;;;;1.48;65.16;102172.00;5023659;28;19967;-69
2022/03/16 06:55:55;;;;;;;;;;;;;;;1.63;65.24;102172.84;4984651;28;19927;-65
2022/03/16 06:58:40;;;;;;;;;;;;;;;1.74;63.71;102176.91;5009075;28;19932;-65
2022/03/16 07:01:24;;;;;;;;;;;;;;;1.74;62.59;102174.28;4998010;28;19971;-64
2022/03/16 07:04:09;;;;;;;;;;;;;;;1.88;63.54;102175.00;5022928;28;19940;-64
2022/03/16 07:06:53;;;;;;;;;;;;;;;1.97;61.96;102179.00;5024275;28;20066;-65
2022/03/16 07:09:41;;;;;;;;;;;;;;;1.99;60.78;102177.41;5010761;28;19929;-65
2022/03/16 07:12:29;;;;;;;;;;;;;;;2.10;60.17;102184.06;5008351;28;20340;-67
2022/03/16 07:15:14;;;;;;;;;;;;;;;2.12;59.70;102173.69;4997903;28;19928;-64
2022/03/16 07:17:59;;;;;;;;;;;;;;;2.15;59.12;102177.38;5008637;28;19929;-65
2022/03/16 07:20:43;;;;;;;;;;;;;;;2.03;58.70;102181.06;5011743;28;19928;-63
2022/03/16 07:23:28;;;;;;;;;;;;;;;2.18;58.33;102177.50;5010192;28;20319;-64
2022/03/16 07:26:12;;;;;;;;;;;;;;;2.58;56.80;102188.31;4996876;28;19932;-65
2022/03/16 07:28:57;;;;;;;;;;;;;;;3.31;55.00;102178.88;5011511;28;20424;-64
2022/03/16 07:31:43;;;;;;;;;;;;;;;4.67;51.27;102170.16;5006859;28;19936;-66
2022/03/16 07:34:28;;;;;;;;;;;;;;;6.23;46.59;102172.81;5010150;28;19971;-63
2022/03/16 07:37:14;;;;;;;;;;;;;;;7.84;41.52;102165.81;5021246;28;19980;-64
2022/03/16 07:39:59;;;;;;;;;;;;;;;9.28;37.26;102170.59;5010309;28;19928;-64
2022/03/16 07:42:45;;;;;;;;;;;;;;;10.38;33.43;102183.63;5000708;28;20124;-64
2022/03/16 07:45:30;;;;;;;;;;;;;;;11.06;30.89;102175.09;4995388;28;19927;-67
2022/03/16 07:48:14;;;;;;;;;;;;;;;11.89;30.57;102177.28;5011874;28;19928;-64
2022/03/16 07:50:58;;;;;;;;;;;;;;;12.29;28.92;102175.97;5008836;28;20020;-65
2022/03/16 07:53:43;;;;;;;;;;;;;;;12.45;27.76;102173.50;5009399;28;19932;-64
2022/03/16 07:56:28;;;;;;;;;;;;;;;12.55;27.09;102178.03;5006705;28;19929;-65
2022/03/16 07:59:14;;;;;;;;;;;;;;;12.72;27.22;102175.56;4994740;28;20120;-63
2022/03/16 08:01:58;;;;;;;;;;;;;;;13.50;25.37;102171.78;5009115;28;20490;-66
2022/03/16 08:04:43;;;;;;;;;;;;;;;14.27;25.56;102172.19;5010414;28;19932;-64
2022/03/16 08:07:28;;;;;;;;;;;;;;;15.11;25.17;102177.66;5023557;28;19975;-65
2022/03/16 08:10:12;;;;;;;;;;;;;;;15.79;22.70;102178.47;4993378;28;20000;-71
2022/03/16 08:12:57;;;;;;;;;;;;;;;16.04;22.78;102169.47;4994909;28;19972;-64
2022/03/16 08:15:42;;;;;;;;;;;;;;;15.93;21.04;102173.97;5008201;28;19928;-65
2022/03/16 08:18:27;;;;;;;;;;;;;;;15.73;20.94;102170.47;5010239;28;19971;-66
2022/03/16 08:21:11;;;;;;;;;;;;;;;13.72;21.91;102172.78;4980791;28;19948;-64
2022/03/16 08:23:56;;;;;;;;;;;;;;;15.02;22.66;102177.66;5009333;28;20014;-64
2022/03/16 08:26:40;;;;;;;;;;;;;;;15.77;22.11;102176.69;5008336;28;19932;-64
2022/03/16 08:29:25;;;;;;;;;;;;;;;17.04;21.80;102178.72;4992694;28;20412;-68
2022/03/16 08:32:09;;;;;;;;;;;;;;;18.23;19.58;102179.28;5010756;28;20036;-65
2022/03/16 08:34:54;;;;;;;;;;;;;;;18.92;18.66;102178.28;4992564;28;19928;-64
2022/03/16 08:37:38;;;;;;;;;;;;;;;19.02;20.27;102175.44;5008128;28;19928;-64
2022/03/16 08:40:23;;;;;;;;;;;;;;;19.69;20.48;102173.34;5008154;28;19932;-64
2022/03/16 08:43:07;;;;;;;;;;;;;;;20.63;17.61;102177.66;5009256;28;19928;-65
2022/03/16 08:49:05;;;;;;;;;;;;;;;21.26;16.21;102184.25;4980525;28;19927;-64
2022/03/16 08:51:49;;;;;;;;;;;;;;;21.06;16.60;102187.47;5009278;28;19928;-68
2022/03/16 08:54:34;;;;;;;;;;;;;;;21.67;16.90;102184.94;5011184;28;19944;-65
2022/03/16 08:57:20;;;;;;;;;;;;;;;21.15;15.88;102171.03;5008681;28;19928;-64
2022/03/16 09:00:05;;;;;;;;;;;;;;;20.35;16.55;102177.41;4982200;28;19943;-66
2022/03/16 09:02:50;;;;;;;;;;;;;;;19.14;17.58;102174.34;5010883;28;20389;-65
2022/03/16 09:05:35;;;;;;;;;;;;;;;18.73;17.76;102174.09;4980634;28;19971;-65
2022/03/16 09:08:19;;;;;;;;;;;;;;;18.47;17.16;102165.56;5009039;28;19936;-66
2022/03/16 09:11:05;;;;;;;;;;;;;;;17.16;18.71;102175.94;5021064;28;19975;-72
2022/03/16 09:13:49;;;;;;;;;;;;;;;17.30;18.33;102166.00;5009220;28;19928;-64
2022/03/16 09:16:34;;;;;;;;;;;;;;;17.12;18.69;102171.50;5006753;28;19947;-66
2022/03/16 09:19:22;;;;;;;;;;;;;;;16.86;18.58;102161.88;5007437;28;19928;-66
2022/03/16 09:22:07;;;;;;;;;;;;;;;16.37;19.66;102168.41;5020938;28;20134;-65
2022/03/16 09:24:52;;;;;;;;;;;;;;;18.30;18.34;102176.47;5007525;28;20029;-66
2022/03/16 09:27:36;;;;;;;;;;;;;;;18.08;17.98;102161.56;4996132;28;19943;-66
2022/03/16 09:30:23;;;;;;;;;;;;;;;16.30;18.68;102162.19;5008808;28;19928;-71
2022/03/16 09:33:10;;;;;;;;;;;;;;;17.46;19.69;102170.34;4995193;28;20059;-65
2022/03/16 09:35:54;;;;;;;;;;;;;;;18.86;18.32;102170.34;5007219;28;19945;-65
2022/03/16 09:38:39;;;;;;;;;;;;;;;20.66;16.80;102170.41;4994133;28;20404;-65
2022/03/16 09:41:25;;;;;;;;;;;;;;;21.84;15.51;102174.56;5021697;28;20293;-66
2022/03/16 09:44:09;;;;;;;;;;;;;;;22.49;14.81;102177.19;5009919;28;19932;-64
2022/03/16 09:46:54;;;;;;;;;;;;;;;21.14;15.24;102180.06;5010836;28;19928;-65
2022/03/16 09:49:39;;;;;;;;;;;;;;;20.36;17.18;102168.41;5005976;28;19928;-70
2022/03/16 09:52:23;;;;;;;;;;;;;;;18.21;16.64;102176.63;5011978;28;19928;-66
2022/03/16 09:55:08;;;;;;;;;;;;;;;19.37;16.29;102169.47;5010369;28;19928;-65
2022/03/16 09:57:54;;;;;;;;;;;;;;;19.54;16.73;102172.78;4997476;28;19945;-65
2022/03/16 10:00:39;;;;;;;;;;;;;;;19.75;15.73;102166.97;5012294;28;19928;-67
2022/03/16 10:03:28;;;;;;;;;;;;;;;20.55;16.28;102155.38;5012764;28;20020;-64
2022/03/16 10:06:14;;;;;;;;;;;;;;;21.31;15.78;102175.13;4998253;28;19948;-64
2022/03/16 10:15:29;;;;;;;;;;;;;;;20.64;15.04;102165.97;4995475;28;19929;-64
2022/03/16 10:18:14;;;;;;;;;;;;;;;21.93;14.48;102170.75;4996177;28;20007;-64
2022/03/16 10:20:59;;;;;;;;;;;;;;;23.33;14.22;102167.22;4997816;28;19970;-65
2022/03/16 10:23:43;;;;;;;;;;;;;;;22.54;14.39;102162.59;5011982;28;19932;-63
2022/03/16 10:26:28;;;;;;;;;;;;;;;23.28;13.41;102160.19;4996804;28;19958;-65
2022/03/16 10:29:12;;;;;;;;;;;;;;;24.20;12.38;102164.03;5010478;28;20356;-69
2022/03/16 10:32:05;;;;;;;;;;;;;;;23.55;13.01;102140.25;5026373;28;19964;-66
2022/03/16 10:34:50;;;;;;;;;;;;;;;24.30;13.33;102161.84;4982652;28;19932;-64
2022/03/16 10:37:35;;;;;;;;;;;;;;;24.44;13.45;102164.94;4997548;28;19945;-65
2022/03/16 10:40:20;;;;;;;;;;;;;;;25.24;11.91;102165.25;5011335;28;20055;-65
2022/03/16 10:46:38;;;;;;;;;;;;;;;25.09;13.41;102152.31;5008491;28;19928;-65
2022/03/16 10:49:22;;;;;;;;;;;;;;;25.63;13.44;102156.28;4998000;28;19928;-65
2022/03/16 10:52:11;;;;;;;;;;;;;;;26.00;11.52;102166.44;5039398;23;19991;-64
2022/03/16 10:54:58;;;;;;;;;;;;;;;27.04;10.67;102162.28;4962312;28;19929;-67
2022/03/16 10:57:44;;;;;;;;;;;;;;;27.51;11.57;102157.16;4993139;28;19929;-65
2022/03/16 11:00:29;;;;;;;;;;;;;;;27.63;10.33;102160.13;4979210;28;20737;-63
2022/03/16 11:03:17;;;;;;;;;;;;;;;27.77;11.99;102156.69;4991841;28;19927;-64
2022/03/16 11:06:03;;;;;;;;;;;;;;;27.42;11.44;102161.25;4962646;28;19944;-64
2022/03/16 11:08:54;;;;;;;;;;;;;;;25.19;11.32;102151.84;4961569;28;20031;-63
2022/03/16 11:14:44;;;;;;;;;;;;;;;23.42;12.32;102153.34;4974669;28;19937;-63
2022/03/16 11:17:28;;;;;;;;;;;;;;;23.26;12.06;102143.97;4969551;28;19929;-65
2022/03/16 11:20:14;;;;;;;;;;;;;;;22.24;12.40;102143.69;4978510;28;20400;-64
2022/03/16 11:26:28;;;;;;;;;;;;;;;21.89;13.64;102139.34;4989052;28;20221;-63
2022/03/16 11:29:32;;;;;;;;;;;;;;;22.58;13.93;102139.94;4967615;28;19929;-65
2022/03/16 11:32:19;;;;;;;;;;;;;;;22.57;13.23;102145.38;4940935;28;19929;-66
2022/03/16 11:35:15;;;;;;;;;;;;;;;22.99;12.67;102139.50;4956088;28;20004;-65
2022/03/16 11:38:01;;;;;;;;;;;;;;;23.35;12.51;102140.09;4955553;28;19984;-65
2022/03/16 11:40:49;;;;;;;;;;;;;;;23.26;12.27;102141.28;4954434;28;19977;-72
2022/03/16 11:43:35;;;;;;;;;;;;;;;22.57;13.14;102131.84;4955795;28;19929;-67
2022/03/16 11:46:28;;;;;;;;;;;;;;;22.06;13.11;102136.16;4967913;28;19933;-66
2022/03/16 11:49:13;;;;;;;;;;;;;;;21.46;13.92;102128.81;4956728;28;19929;-66
2022/03/16 11:52:02;;;;;;;;;;;;;;;21.26;13.53;102130.28;4956535;28;20148;-66
2022/03/16 11:54:52;;;;;;;;;;;;;;;20.74;14.12;102135.16;4967763;28;19929;-65
2022/03/16 11:57:53;;;;;;;;;;;;;;;20.32;13.73;102133.44;4939848;28;20023;-62
2022/03/16 12:00:38;;;;;;;;;;;;;;;19.89;14.34;102122.69;4955672;28;19957;-66
2022/03/16 12:03:24;;;;;;;;;;;;;;;19.36;15.19;102114.78;4968366;28;20314;-65
2022/03/16 12:06:08;;;;;;;;;;;;;;;19.02;15.56;102118.94;4981180;28;19928;-64
2022/03/16 12:08:58;;;;;;;;;;;;;;;18.22;15.36;102115.69;4960807;28;19948;-69
2022/03/16 12:15:19;;;;;;;;;;;;;;;16.02;16.71;102115.06;4978473;28;19967;-65
2022/03/16 12:18:05;;;;;;;;;;;;;;;15.32;17.61;102101.91;4980276;28;19977;-65
2022/03/16 12:20:56;;;;;;;;;;;;;;;15.30;17.66;102111.69;4944419;28;20396;-64
2022/03/16 12:23:47;;;;;;;;;;;;;;;15.35;17.63;102108.16;4961878;28;19969;-63
2022/03/16 12:26:32;;;;;;;;;;;;;;;15.17;17.53;102105.50;4979368;28;19933;-63
2022/03/16 12:29:16;;;;;;;;;;;;;;;15.35;17.50;102100.13;4986442;28;20021;-64
2022/03/16 12:32:00;;;;;;;;;;;;;;;15.36;17.56;102101.03;4991429;28;19928;-62
2022/03/16 12:34:46;;;;;;;;;;;;;;;15.02;17.51;102099.25;4960480;28;19927;-64
2022/03/16 12:37:31;;;;;;;;;;;;;;;14.45;18.31;102108.19;4944663;28;20421;-65
2022/03/16 12:40:15;;;;;;;;;;;;;;;14.36;18.47;102100.13;4975932;28;19971;-64
2022/03/16 12:43:01;;;;;;;;;;;;;;;14.28;18.23;102101.91;4971834;28;20427;-62
2022/03/16 12:45:45;;;;;;;;;;;;;;;14.13;18.23;102099.19;4989361;28;20864;-64
2022/03/16 12:48:33;;;;;;;;;;;;;;;13.86;18.12;102107.09;4990971;28;19976;-65
2022/03/16 12:51:37;;;;;;;;;;;;;;;13.72;18.45;102104.38;4968881;28;19969;-71
2022/03/16 12:54:26;;;;;;;;;;;;;;;13.54;18.54;102095.41;4970286;28;19992;-63
2022/03/16 12:57:13;;;;;;;;;;;;;;;13.24;18.88;102108.53;4972593;28;19929;-67
2022/03/16 12:59:59;;;;;;;;;;;;;;;13.18;18.96;102101.38;4969365;28;19933;-70
2022/03/16 13:02:44;;;;;;;;;;;;;;;12.91;19.20;102103.84;4970009;28;19948;-64
2022/03/16 13:05:35;;;;;;;;;;;;;;;12.74;19.28;102108.13;4967170;28;19933;-64
2022/03/16 13:08:19;;;;;;;;;;;;;;;12.90;18.89;102101.16;4941939;28;19965;-64
2022/03/16 13:11:16;;;;;;;;;;;;;;;13.03;19.06;102103.06;4969713;28;20471;-64
2022/03/16 13:14:06;;;;;;;;;;;;;;;12.94;19.02;102098.53;4952901;28;20397;-63
2022/03/16 13:16:55;;;;;;;;;;;;;;;12.46;19.04;102095.44;4968452;28;19977;-65
2022/03/16 13:19:44;;;;;;;;;;;;;;;12.18;19.23;102100.50;4970418;28;20385;-64
2022/03/16 13:22:30;;;;;;;;;;;;;;;11.94;19.91;102100.19;4953119;28;20298;-65
2022/03/16 13:25:15;;;;;;;;;;;;;;;12.16;19.77;102099.56;4968739;28;20033;-62
2022/03/16 13:28:00;;;;;;;;;;;;;;;12.19;19.64;102108.47;4976728;28;19929;-64
2022/03/16 13:30:45;;;;;;;;;;;;;;;12.07;19.78;102104.81;4976683;28;19929;-62
2022/03/16 13:33:29;;;;;;;;;;;;;;;12.09;19.60;102100.38;4972663;28;19988;-65
2022/03/16 13:36:14;;;;;;;;;;;;;;;11.87;19.62;102101.91;4973942;28;19964;-71
2022/03/16 13:39:15;;;;;;;;;;;;;;;11.98;19.91;102102.00;4975998;28;20349;-62
2022/03/16 13:42:07;;;;;;;;;;;;;;;11.99;19.92;102104.69;4974744;28;19933;-66
2022/03/16 13:44:54;;;;;;;;;;;;;;;11.80;19.20;102078.81;4958201;28;19929;-70
2022/03/16 13:47:42;;;;;;;;;;;;;;;11.54;19.38;102108.53;4961351;28;19981;-63
2022/03/16 13:50:27;;;;;;;;;;;;;;;11.33;19.21;102105.59;4973362;28;20214;-65
2022/03/16 13:53:12;;;;;;;;;;;;;;;11.25;19.94;102108.13;4979263;28;19988;-61
2022/03/16 13:56:10;;;;;;;;;;;;;;;10.97;19.95;102108.59;4981807;28;20424;-62
2022/03/16 13:58:55;;;;;;;;;;;;;;;10.82;19.80;102103.03;4988486;28;19928;-63
2022/03/16 14:01:40;;;;;;;;;;;;;;;10.50;20.04;102101.59;4984163;28;19933;-64
2022/03/16 14:04:29;;;;;;;;;;;;;;;10.35;20.00;102106.63;4966283;28;20676;-64
2022/03/16 14:07:19;;;;;;;;;;;;;;;10.00;20.48;102106.81;4986123;28;20439;-70
2022/03/16 14:10:05;;;;;;;;;;;;;;;9.87;20.72;102113.63;4982925;28;19929;-65
2022/03/16 14:12:49;;;;;;;;;;;;;;;9.88;21.15;102107.44;4950214;28;20179;-63
2022/03/16 14:15:33;;;;;;;;;;;;;;;9.60;21.40;102115.69;4967863;28;19968;-63
2022/03/16 14:18:23;;;;;;;;;;;;;;;9.34;21.00;102115.13;4982686;28;20898;-65
2022/03/16 14:21:10;;;;;;;;;;;;;;;9.13;21.50;102119.94;4983107;28;20016;-69
2022/03/16 14:23:54;;;;;;;;;;;;;;;8.90;21.57;102107.91;4981827;28;19928;-65
2022/03/16 14:26:40;;;;;;;;;;;;;;;8.42;21.87;102104.06;4964116;28;19929;-64
2022/03/16 14:29:25;;;;;;;;;;;;;;;8.20;22.15;102106.06;4977560;28;20397;-64
2022/03/16 14:32:10;;;;;;;;;;;;;;;8.06;22.03;102103.06;4970264;28;19993;-64
2022/03/16 14:34:54;;;;;;;;;;;;;;;8.00;22.32;102107.28;4983444;28;19943;-66